createdAt,value
2018-03-26T00:00:46.527Z,68.08
2018-03-26T00:03:49.703Z,68.20
2018-03-26T00:06:52.833Z,68.11
2018-03-26T00:09:56.031Z,68.43
2018-03-26T00:12:59.461Z,68.42
2018-03-26T00:16:02.604Z,68.70
2018-03-26T00:19:05.750Z,67.80
2018-03-26T00:22:08.901Z,68.89
2018-03-26T00:25:12.022Z,68.84
2018-03-26T00:28:15.163Z,68.77
2018-03-26T00:31:18.291Z,68.46
2018-03-26T00:34:21.421Z,68.12
2018-03-26T00:37:24.565Z,68.23
2018-03-26T00:40:27.762Z,68.93
2018-03-26T00:43:30.890Z,68.58
2018-03-26T00:46:34.049Z,68.39
2018-03-26T00:49:37.222Z,68.98
2018-03-26T00:52:40.356Z,69.13
2018-03-26T00:55:43.538Z,67.72
2018-03-26T00:58:46.674Z,67.51
2018-03-26T01:01:49.815Z,68.82
2018-03-26T01:04:52.949Z,68.00
2018-03-26T01:07:56.094Z,68.87
2018-03-26T01:10:59.248Z,68.80
2018-03-26T01:14:02.397Z,69.02
2018-03-26T01:17:05.594Z,69.08
2018-03-26T01:20:08.713Z,69.06
2018-03-26T01:23:11.883Z,68.93
2018-03-26T01:26:15.025Z,69.55
2018-03-26T01:29:18.177Z,68.83
2018-03-26T01:32:21.305Z,69.46
2018-03-26T01:35:24.474Z,69.57
2018-03-26T01:38:27.647Z,69.30
2018-03-26T01:41:30.774Z,69.76
2018-03-26T01:44:33.912Z,69.38
2018-03-26T01:47:37.081Z,69.09
2018-03-26T01:50:40.220Z,69.34
2018-03-26T01:53:43.405Z,69.34
2018-03-26T01:56:46.530Z,68.09
2018-03-26T01:59:49.698Z,68.73
2018-03-26T02:02:52.837Z,69.31
2018-03-26T02:05:56.025Z,69.64
2018-03-26T02:08:59.229Z,69.70
2018-03-26T02:12:02.427Z,69.55
2018-03-26T02:15:05.587Z,68.48
2018-03-26T02:18:08.772Z,68.84
2018-03-26T02:21:11.906Z,69.06
2018-03-26T02:24:15.061Z,68.87
2018-03-26T02:27:18.266Z,70.46
2018-03-26T02:30:21.416Z,70.81
2018-03-26T02:33:24.552Z,69.71
2018-03-26T02:36:27.690Z,69.99
2018-03-26T02:39:30.841Z,69.42
2018-03-26T02:42:33.991Z,70.53
2018-03-26T02:45:37.128Z,70.92
2018-03-26T02:48:40.289Z,70.80
2018-03-26T02:51:43.416Z,71.14
2018-03-26T02:54:46.545Z,71.14
2018-03-26T02:57:49.690Z,71.72
2018-03-26T03:00:52.822Z,71.70
2018-03-26T03:03:55.959Z,71.61
2018-03-26T03:06:59.118Z,71.96
2018-03-26T03:10:02.258Z,70.61
2018-03-26T03:13:05.398Z,71.13
2018-03-26T03:16:08.739Z,70.81
2018-03-26T03:19:11.900Z,71.35
2018-03-26T03:22:15.045Z,71.53
2018-03-26T03:25:18.183Z,70.17
2018-03-26T03:28:21.314Z,70.96
2018-03-26T03:31:24.453Z,71.21
2018-03-26T03:34:28.170Z,70.99
2018-03-26T03:37:31.374Z,70.81
2018-03-26T03:40:34.539Z,70.61
2018-03-26T03:43:37.679Z,71.06
2018-03-26T03:46:40.850Z,71.49
2018-03-26T03:49:44.006Z,71.79
2018-03-26T03:52:47.144Z,71.59
2018-03-26T03:55:50.302Z,71.59
2018-03-26T03:58:53.459Z,72.25
2018-03-26T04:01:56.602Z,72.43
2018-03-26T04:04:59.765Z,71.50
2018-03-26T04:08:03.191Z,71.85
2018-03-26T04:11:06.329Z,71.43
2018-03-26T04:14:09.494Z,71.70
2018-03-26T04:17:12.648Z,71.84
2018-03-26T04:20:17.687Z,71.85
2018-03-26T04:23:20.819Z,71.87
2018-03-26T04:26:23.960Z,71.53
2018-03-26T04:29:27.098Z,71.44
2018-03-26T04:32:30.273Z,71.69
2018-03-26T04:35:33.402Z,71.20
2018-03-26T04:38:36.537Z,70.70
2018-03-26T04:41:39.723Z,71.47
2018-03-26T04:44:42.890Z,71.28
2018-03-26T04:47:46.092Z,71.34
2018-03-26T04:50:49.271Z,71.53
2018-03-26T04:53:52.420Z,71.11
2018-03-26T04:56:55.558Z,70.64
2018-03-26T04:59:58.747Z,71.09
2018-03-26T05:03:02.007Z,70.86
2018-03-26T05:06:05.126Z,71.05
2018-03-26T05:09:08.280Z,70.92
2018-03-26T05:12:11.489Z,71.03
2018-03-26T05:15:14.661Z,70.83
2018-03-26T05:18:17.833Z,70.70
2018-03-26T05:21:20.946Z,69.62
2018-03-26T05:24:24.068Z,70.80
2018-03-26T05:27:27.198Z,71.23
2018-03-26T05:30:30.381Z,71.63
2018-03-26T05:33:33.518Z,72.13
2018-03-26T05:36:36.664Z,72.19
2018-03-26T05:39:39.833Z,71.59
2018-03-26T05:42:42.976Z,71.90
2018-03-26T05:45:46.154Z,71.26
2018-03-26T05:48:49.302Z,71.26
2018-03-26T05:51:52.447Z,71.52
2018-03-26T05:54:55.702Z,70.58
2018-03-26T05:57:58.898Z,71.47
2018-03-26T06:01:02.067Z,71.30
2018-03-26T06:04:05.296Z,70.43
2018-03-26T06:07:08.418Z,71.35
2018-03-26T06:10:11.616Z,71.72
2018-03-26T06:13:14.807Z,71.52
2018-03-26T06:16:17.985Z,71.41
2018-03-26T06:19:21.190Z,70.96
2018-03-26T06:22:24.366Z,70.16
2018-03-26T06:25:27.667Z,71.15
2018-03-26T06:28:30.889Z,71.02
2018-03-26T06:31:34.078Z,70.68
2018-03-26T06:34:37.276Z,70.92
2018-03-26T06:37:40.472Z,70.22
2018-03-26T06:40:43.723Z,70.11
2018-03-26T06:43:46.963Z,69.70
2018-03-26T06:46:50.156Z,69.81
2018-03-26T06:49:53.401Z,69.81
2018-03-26T06:52:56.551Z,70.00
2018-03-26T06:55:59.750Z,69.93
2018-03-26T06:59:02.947Z,71.00
2018-03-26T07:02:06.180Z,71.02
2018-03-26T07:05:09.370Z,70.46
2018-03-26T07:08:12.558Z,70.99
2018-03-26T07:11:15.811Z,71.28
2018-03-26T07:14:19.010Z,71.43
2018-03-26T07:17:22.230Z,71.36
2018-03-26T07:20:25.470Z,71.54
2018-03-26T07:23:29.111Z,71.62
2018-03-26T07:26:32.426Z,71.34
2018-03-26T07:29:35.687Z,70.50
2018-03-26T07:32:38.931Z,69.97
2018-03-26T07:35:42.210Z,69.31
2018-03-26T07:38:45.466Z,68.77
2018-03-26T07:41:48.654Z,68.07
2018-03-26T07:44:51.822Z,68.08
2018-03-26T07:47:55.016Z,67.87
2018-03-26T07:50:58.188Z,67.85
2018-03-26T07:54:01.363Z,67.46
2018-03-26T07:57:04.539Z,67.71
2018-03-26T08:00:07.766Z,66.89
2018-03-26T08:03:10.905Z,66.75
2018-03-26T08:06:14.098Z,66.29
2018-03-26T08:09:17.234Z,65.24
2018-03-26T08:12:20.390Z,65.75
2018-03-26T08:15:23.589Z,64.62
2018-03-26T08:18:26.773Z,63.58
2018-03-26T08:21:30.087Z,63.72
2018-03-26T08:24:33.276Z,63.54
2018-03-26T08:27:36.423Z,62.90
2018-03-26T08:30:39.595Z,62.64
2018-03-26T08:33:42.794Z,62.82
2018-03-26T08:36:45.968Z,62.42
2018-03-26T08:39:49.120Z,61.16
2018-03-26T08:42:52.295Z,62.11
2018-03-26T08:45:55.482Z,61.67
2018-03-26T08:48:58.895Z,60.92
2018-03-26T08:52:02.148Z,61.39
2018-03-26T08:55:05.357Z,61.28
2018-03-26T08:58:08.551Z,61.28
2018-03-26T09:01:11.804Z,60.16
2018-03-26T09:04:15.081Z,61.18
2018-03-26T09:07:18.233Z,60.67
2018-03-26T09:10:21.453Z,60.82
2018-03-26T09:13:24.657Z,60.46
2018-03-26T09:16:27.756Z,60.22
2018-03-26T09:19:38.268Z,60.43
2018-03-26T09:22:41.695Z,59.94
2018-03-26T09:25:45.169Z,59.90
2018-03-26T09:28:48.596Z,59.67
2018-03-26T09:31:52.127Z,59.74
2018-03-26T09:34:55.735Z,59.82
2018-03-26T09:37:59.422Z,58.72
2018-03-26T09:41:02.912Z,59.42
2018-03-26T09:44:06.254Z,58.81
2018-03-26T09:47:09.761Z,57.86
2018-03-26T09:50:13.092Z,57.18
2018-03-26T09:53:16.395Z,56.45
2018-03-26T09:56:21.613Z,56.78
2018-03-26T09:59:24.987Z,56.01
2018-03-26T10:02:28.437Z,55.92
2018-03-26T10:05:31.875Z,55.70
2018-03-26T10:08:35.316Z,56.27
2018-03-26T10:11:38.661Z,56.42
2018-03-26T10:14:42.024Z,55.63
2018-03-26T10:17:47.221Z,54.61
2018-03-26T10:20:51.893Z,54.58
2018-03-26T10:23:55.584Z,54.06
2018-03-26T10:26:59.293Z,53.57
2018-03-26T10:30:02.631Z,53.47
2018-03-26T10:33:05.855Z,53.36
2018-03-26T10:36:09.932Z,52.54
2018-03-26T10:39:13.075Z,52.63
2018-03-26T10:42:16.226Z,52.87
2018-03-26T10:45:20.839Z,53.09
2018-03-26T10:48:24.992Z,53.55
2018-03-26T10:51:28.124Z,53.47
2018-03-26T10:54:31.865Z,53.32
2018-03-26T10:57:35.000Z,53.28
2018-03-26T11:00:38.657Z,53.20
2018-03-26T11:03:41.806Z,53.22
2018-03-26T11:06:44.964Z,53.11
2018-03-26T11:09:48.116Z,53.19
2018-03-26T11:12:51.259Z,53.11
2018-03-26T11:15:54.425Z,53.06
2018-03-26T11:18:57.539Z,52.32
2018-03-26T11:22:01.094Z,52.91
2018-03-26T11:25:05.890Z,52.42
2018-03-26T11:28:09.189Z,52.79
2018-03-26T11:31:12.446Z,52.46
2018-03-26T11:34:15.580Z,52.54
2018-03-26T11:37:19.373Z,51.71
2018-03-26T11:40:22.492Z,51.42
2018-03-26T11:43:25.705Z,51.88
2018-03-26T11:46:28.825Z,51.80
2018-03-26T11:49:31.971Z,52.01
2018-03-26T11:52:35.960Z,52.35
2018-03-26T11:55:39.091Z,51.78
2018-03-26T11:58:42.255Z,51.63
2018-03-26T12:01:45.503Z,51.93
2018-03-26T12:04:48.638Z,51.29
2018-03-26T12:07:51.800Z,51.47
2018-03-26T12:10:54.976Z,51.62
2018-03-26T12:13:58.089Z,51.26
2018-03-26T12:17:01.242Z,51.45
2018-03-26T12:20:14.360Z,51.99
2018-03-26T12:23:26.557Z,51.13
2018-03-26T12:26:29.956Z,51.55
2018-03-26T12:30:38.025Z,51.96
2018-03-26T12:33:50.189Z,51.99
2018-03-26T12:36:53.307Z,51.68
2018-03-26T12:39:56.462Z,51.81
2018-03-26T12:42:59.638Z,51.45
2018-03-26T12:46:42.276Z,50.86
2018-03-26T12:49:45.389Z,51.39
2018-03-26T12:52:52.991Z,50.06
2018-03-26T12:55:57.397Z,50.67
2018-03-26T12:59:00.850Z,51.07
2018-03-26T13:02:27.209Z,51.14
2018-03-26T13:05:30.649Z,51.18
2018-03-26T13:08:34.097Z,51.18
2018-03-26T13:11:37.531Z,50.89
2018-03-26T13:14:40.843Z,49.98
2018-03-26T13:17:44.393Z,49.97
2018-03-26T13:20:47.719Z,49.86
2018-03-26T13:23:51.052Z,50.36
2018-03-26T13:26:54.533Z,50.15
2018-03-26T13:29:58.002Z,49.75
2018-03-26T13:33:02.261Z,49.53
2018-03-26T13:36:05.615Z,49.68
2018-03-26T13:39:09.224Z,50.18
2018-03-26T13:42:12.415Z,50.39
2018-03-26T13:45:15.532Z,50.13
2018-03-26T13:48:20.146Z,49.56
2018-03-26T13:51:26.399Z,49.95
2018-03-26T13:54:31.184Z,49.69
2018-03-26T13:57:35.293Z,49.46
2018-03-26T14:00:38.435Z,49.75
2018-03-26T14:03:42.287Z,50.02
2018-03-26T14:07:01.621Z,49.93
2018-03-26T14:12:25.050Z,49.31
2018-03-26T14:17:57.249Z,49.92
2018-03-26T14:21:01.615Z,49.29
2018-03-26T14:24:05.166Z,48.15
2018-03-26T14:27:08.605Z,47.94
2018-03-26T14:30:12.001Z,47.76
2018-03-26T14:33:15.438Z,45.55
2018-03-26T14:36:18.740Z,45.95
2018-03-26T14:39:23.263Z,45.75
2018-03-26T14:42:27.765Z,45.82
2018-03-26T14:45:31.144Z,46.31
2018-03-26T14:48:35.958Z,45.51
2018-03-26T14:51:40.498Z,43.15
2018-03-26T14:54:44.940Z,43.57
2018-03-26T14:57:48.378Z,44.33
2018-03-26T15:00:51.787Z,43.73
2018-03-26T15:03:59.351Z,43.71
2018-03-26T15:07:03.792Z,43.01
2018-03-26T15:10:07.271Z,42.24
2018-03-26T15:13:10.679Z,41.66
2018-03-26T15:16:14.258Z,40.26
2018-03-26T15:19:17.718Z,41.28
2018-03-26T15:22:21.165Z,41.29
2018-03-26T15:25:24.618Z,40.84
2018-03-26T15:28:29.147Z,40.25
2018-03-26T15:31:32.472Z,40.46
2018-03-26T15:34:35.923Z,41.27
2018-03-26T15:37:39.561Z,40.74
2018-03-26T15:40:42.791Z,41.37
2018-03-26T15:43:46.921Z,41.75
2018-03-26T15:46:51.260Z,41.66
2018-03-26T15:49:56.050Z,42.25
2018-03-26T15:52:59.586Z,41.45
2018-03-26T15:56:04.209Z,42.60
2018-03-26T15:59:09.786Z,42.60
2018-03-26T16:02:13.370Z,43.47
2018-03-26T16:05:22.999Z,43.73
2018-03-26T16:08:27.879Z,43.83
2018-03-26T16:11:32.279Z,44.12
2018-03-26T16:14:36.902Z,44.08
2018-03-26T16:17:42.284Z,44.02
2018-03-26T16:20:46.968Z,44.46
2018-03-26T16:23:55.883Z,45.06
2018-03-26T16:26:59.435Z,45.69
2018-03-26T16:30:03.103Z,45.58
2018-03-26T16:33:06.750Z,46.13
2018-03-26T16:36:10.367Z,45.86
2018-03-26T16:39:13.982Z,46.35
2018-03-26T16:42:21.516Z,46.09
2018-03-26T16:45:27.049Z,46.95
2018-03-26T16:48:30.604Z,47.71
2018-03-26T16:51:34.146Z,47.74
2018-03-26T16:54:39.706Z,47.14
2018-03-26T16:57:43.247Z,47.12
2018-03-26T17:00:46.814Z,47.16
2018-03-26T17:03:50.507Z,47.46
2018-03-26T17:06:54.080Z,47.90
2018-03-26T17:10:13.541Z,48.18
2018-03-26T17:13:17.047Z,48.53
2018-03-26T17:16:20.727Z,48.94
2018-03-26T17:19:24.951Z,49.19
2018-03-26T17:22:31.033Z,49.47
2018-03-26T17:25:46.000Z,49.07
2018-03-26T17:28:56.693Z,49.14
2018-03-26T17:32:00.779Z,49.57
2018-03-26T17:35:04.272Z,50.13
2018-03-26T17:40:05.393Z,50.42
2018-03-26T17:43:09.891Z,51.06
2018-03-26T17:46:13.408Z,51.45
2018-03-26T17:49:16.976Z,51.43
2018-03-26T17:52:22.535Z,51.79
2018-03-26T17:55:28.080Z,51.90
2018-03-26T17:58:33.448Z,52.12
2018-03-26T18:01:36.954Z,52.19
2018-03-26T18:04:40.514Z,52.49
2018-03-26T18:07:44.174Z,52.63
2018-03-26T18:10:48.860Z,52.69
2018-03-26T18:13:53.555Z,52.98
2018-03-26T18:16:57.391Z,52.89
2018-03-26T18:20:01.322Z,52.92
2018-03-26T18:23:05.069Z,52.97
2018-03-26T18:26:17.047Z,53.23
2018-03-26T18:29:20.656Z,53.34
2018-03-26T18:32:24.145Z,53.19
2018-03-26T18:35:27.646Z,52.91
2018-03-26T18:38:31.730Z,53.29
2018-03-26T18:41:36.212Z,52.76
2018-03-26T18:44:39.781Z,52.48
2018-03-26T18:47:44.262Z,53.16
2018-03-26T18:50:47.877Z,55.10
2018-03-26T18:53:52.342Z,57.74
2018-03-26T18:56:57.886Z,61.06
2018-03-26T19:00:03.426Z,64.79
2018-03-26T19:03:06.922Z,67.79
2018-03-26T19:06:11.865Z,70.07
2018-03-26T19:09:15.858Z,72.62
2018-03-26T19:12:19.464Z,74.81
2018-03-26T19:15:23.333Z,74.76
2018-03-26T19:18:27.008Z,75.20
2018-03-26T19:21:50.488Z,75.59
2018-03-26T19:24:56.013Z,75.83
2018-03-26T19:28:00.772Z,76.11
2018-03-26T19:31:04.069Z,76.68
2018-03-26T19:34:07.330Z,76.35
2018-03-26T19:37:10.634Z,77.00
2018-03-26T19:40:13.915Z,76.94
2018-03-26T19:43:17.123Z,78.16
2018-03-26T19:46:27.415Z,78.10
2018-03-26T19:49:30.743Z,77.66
2018-03-26T19:52:33.882Z,77.87
2018-03-26T19:55:37.157Z,78.36
2018-03-26T19:58:40.371Z,78.77
2018-03-26T20:01:43.618Z,78.02
2018-03-26T20:04:46.819Z,77.50
2018-03-26T20:07:50.061Z,77.05
2018-03-26T20:10:53.410Z,76.97
2018-03-26T20:13:56.656Z,75.60
2018-03-26T20:17:00.053Z,76.90
2018-03-26T20:20:03.328Z,77.58
2018-03-26T20:23:06.519Z,77.53
2018-03-26T20:26:09.717Z,78.12
2018-03-26T20:29:12.918Z,78.15
2018-03-26T20:32:16.397Z,78.26
2018-03-26T20:35:19.728Z,78.56
2018-03-26T20:38:23.121Z,78.80
2018-03-26T20:41:26.310Z,79.00
2018-03-26T20:44:29.608Z,79.18
2018-03-26T20:47:32.915Z,79.15
2018-03-26T20:50:36.186Z,79.19
2018-03-26T20:53:39.372Z,79.26
2018-03-26T20:56:42.578Z,79.86
2018-03-26T20:59:45.788Z,79.53
2018-03-26T21:02:48.977Z,79.32
2018-03-26T21:05:52.153Z,79.12
2018-03-26T21:08:55.342Z,78.99
2018-03-26T21:11:58.532Z,79.29
2018-03-26T21:15:01.743Z,79.39
2018-03-26T21:18:05.143Z,79.82
2018-03-26T21:21:09.088Z,79.11
2018-03-26T21:24:13.023Z,79.85
2018-03-26T21:27:17.322Z,79.99
2018-03-26T21:30:20.665Z,80.24
2018-03-26T21:33:23.892Z,80.66
2018-03-26T21:36:27.238Z,80.96
2018-03-26T21:39:30.558Z,80.54
2018-03-26T21:42:33.803Z,80.57
2018-03-26T21:45:37.070Z,80.82
2018-03-26T21:48:40.346Z,81.02
2018-03-26T21:51:43.594Z,80.88
2018-03-26T21:54:47.736Z,81.21
2018-03-26T21:57:51.012Z,80.81
2018-03-26T22:00:54.310Z,81.44
2018-03-26T22:03:57.597Z,80.66
2018-03-26T22:07:00.794Z,81.18
2018-03-26T22:10:04.268Z,81.39
2018-03-26T22:13:07.492Z,81.41
2018-03-26T22:16:10.698Z,80.98
2018-03-26T22:19:13.959Z,80.22
2018-03-26T22:22:17.295Z,81.18
2018-03-26T22:25:20.604Z,81.97
2018-03-26T22:28:23.938Z,81.69
2018-03-26T22:31:27.164Z,80.00
2018-03-26T22:34:30.575Z,81.00
2018-03-26T22:37:33.884Z,81.83
2018-03-26T22:40:37.067Z,81.85
2018-03-26T22:43:40.377Z,81.70
2018-03-26T22:46:43.663Z,82.14
2018-03-26T22:49:46.862Z,82.14
2018-03-26T22:52:50.161Z,82.17
2018-03-26T22:55:53.364Z,82.22
2018-03-26T22:58:56.610Z,82.66
2018-03-26T23:01:59.880Z,82.61
2018-03-26T23:05:04.088Z,82.38
2018-03-26T23:08:07.371Z,82.88
2018-03-26T23:11:10.567Z,82.57
2018-03-26T23:14:13.854Z,82.46
2018-03-26T23:17:17.165Z,82.56
2018-03-26T23:20:20.459Z,82.30
2018-03-26T23:23:23.675Z,81.80
2018-03-26T23:26:26.950Z,81.41
2018-03-26T23:29:30.325Z,81.44
2018-03-26T23:32:33.496Z,81.81
2018-03-26T23:35:36.705Z,81.89
2018-03-26T23:38:39.905Z,82.35
2018-03-26T23:41:43.082Z,82.45
2018-03-26T23:44:46.317Z,82.30
2018-03-26T23:47:49.511Z,82.12
2018-03-26T23:50:52.728Z,82.36
2018-03-26T23:53:55.983Z,81.87
2018-03-26T23:56:59.210Z,82.05
